Latest Weather Observations for Hamilton

IDV60801

Issued at 4:35 am EDT Friday 24 October 2014 (issued every 30 minutes, with the page automatically refreshed every 10 minutes)

About weather observations | Map of weather stations | Latest weather observations for VIC | Other Formats
Station Details ID: 090173 Name: HAMILTON AIRPORT Lat: -37.65 Lon: 142.06 Height: 241.1 m
Data from the previous 72 hours. | See also: Recent months at Hamilton
Date/Time
EDT
Temp
°C
App
Temp
°C
Dew
Point
Rel
Hum
%
Delta-T
°C
Wind Press
QNH
hPa
Press
MSL
hPa
Rain
since 9 am
mm
Dir
 
Spd
km/h
Gust
km/h
Spd
kts
Gust
kts
24/04:30am 10.7 9.6 10.5 99 0.1 NNE 7 9 4 5 1012.0 1012.0 0.0
24/04:13am 11.4 9.7 11.2 99 0.1 NE 11 13 6 7 1012.0 1012.0 0.0
24/04:06am 11.6 9.6 11.4 99 0.1 ENE 13 15 7 8 1011.9 1011.9 0.0
24/04:00am 11.9 10.0 11.7 99 0.1 ENE 13 15 7 8 1012.0 1012.0 0.0
24/03:30am 11.3 8.8 11.1 99 0.1 E 15 17 8 9 1012.3 1012.3 0.0
24/03:00am 11.4 8.6 11.2 99 0.1 ESE 17 19 9 10 1012.6 1012.6 0.0
24/02:30am 11.6 9.2 11.4 99 0.1 ESE 15 17 8 9 1012.9 1012.9 0.0
24/02:00am 12.0 9.7 11.8 99 0.1 E 15 17 8 9 1013.1 1013.1 0.0
24/01:30am 12.2 10.0 12.0 99 0.1 ESE 15 17 8 9 1013.4 1013.4 0.0
24/01:00am 12.7 9.9 12.5 99 0.1 ESE 19 22 10 12 1013.6 1013.6 0.0
24/12:30am 12.7 9.9 12.5 99 0.1 ESE 19 22 10 12 1014.0 1014.0 0.0
24/12:00am 12.8 9.8 12.6 99 0.1 ESE 20 24 11 13 1014.3 1014.3 0.0
 
Date/Time
EDT
Temp
°C
App
Temp
°C
Dew
Point
Rel
Hum
%
Delta-T
°C
Wind Press
QNH
hPa
Press
MSL
hPa
Rain
since 9 am
mm
Dir
 
Spd
km/h
Gust
km/h
Spd
kts
Gust
kts
23/11:30pm 13.0 9.7 12.8 99 0.1 E 22 28 12 15 1014.5 1014.5 0.0
23/11:00pm 13.1 8.7 12.9 99 0.1 E 28 35 15 19 1014.7 1014.7 0.0
23/10:30pm 13.2 9.1 12.7 97 0.3 ESE 26 33 14 18 1014.9 1014.9 0.0
23/10:00pm 13.4 9.7 12.6 95 0.4 ESE 24 32 13 17 1015.1 1015.1 0.0
23/09:30pm 13.8 10.4 12.5 92 0.7 ESE 22 28 12 15 1015.1 1015.1 0.0
23/09:00pm 14.2 10.8 12.6 90 0.9 ESE 22 28 12 15 1015.0 1015.0 0.0
23/08:30pm 14.9 11.9 12.6 86 1.3 SE 20 24 11 13 1014.8 1014.8 0.0
23/08:00pm 15.8 12.8 12.5 81 1.8 SE 20 28 11 15 1014.7 1014.7 0.0
23/07:30pm 17.5 14.2 12.8 74 2.7 SE 22 28 12 15 1014.9 1014.9 0.0
23/07:00pm 18.9 15.7 13.1 69 3.3 SE 22 28 12 15 1014.9 1014.9 0.0
23/06:30pm 20.4 17.0 13.8 66 3.8 SE 24 32 13 17 1014.9 1014.9 0.0
23/06:00pm 21.5 18.2 13.9 62 4.5 ESE 24 33 13 18 1014.8 1014.8 0.0
23/05:30pm 21.6 17.4 13.5 60 4.7 ESE 28 37 15 20 1014.7 1014.7 0.0
23/05:00pm 22.3 18.7 14.2 60 4.8 SE 26 35 14 19 1014.8 1014.8 0.0
23/04:30pm 22.3 18.5 14.7 62 4.5 SE 28 35 15 19 1014.9 1014.9 0.0
23/04:00pm 21.9 18.4 14.5 63 4.4 SE 26 35 14 19 1015.4 1015.3 0.0
23/03:30pm 21.4 17.8 14.3 64 4.2 SE 26 39 14 21 1015.7 1015.7 0.0
23/03:00pm 20.9 17.2 13.8 64 4.1 ESE 26 35 14 19 1016.0 1016.0 0.0
23/02:30pm 20.9 17.7 14.3 66 3.9 SE 24 33 13 18 1016.6 1016.6 0.0
23/02:00pm 19.6 15.8 13.5 68 3.5 ESE 26 35 14 19 1016.9 1016.9 0.0
23/01:30pm 18.7 14.7 12.9 69 3.3 ESE 26 33 14 18 1017.2 1017.2 0.0
23/01:15pm 17.9 13.5 13.0 73 2.8 ESE 28 35 15 19 1017.7 1017.7 0.0
23/01:00pm 16.4 11.8 12.4 77 2.2 ESE 28 35 15 19 1017.8 1017.8 0.0
23/12:30pm 15.3 10.7 12.2 82 1.7 ESE 28 35 15 19 1018.1 1018.1 0.0
23/12:00pm 14.8 10.5 12.1 84 1.5 ESE 26 37 14 20 1018.6 1018.6 0.0
23/11:30am 14.1 9.4 12.0 87 1.1 ESE 28 39 15 21 1019.0 1019.1 0.0
23/11:00am 13.4 8.6 11.8 90 0.9 ESE 28 35 15 19 1019.2 1019.3 0.0
23/10:30am 12.7 7.6 11.8 94 0.5 SE 30 37 16 20 1019.7 1019.7 0.0
23/10:00am 12.0 7.6 11.7 98 0.2 ESE 26 37 14 20 1019.8 1019.8 0.0
23/09:30am 11.8 7.0 11.6 99 0.1 ESE 28 35 15 19 1019.7 1019.7 0.0
23/09:00am 11.5 6.6 11.3 99 0.1 SE 28 37 15 20 1019.9 1019.9 0.0
23/08:30am 11.4 6.8 11.2 99 0.1 SE 26 35 14 19 1020.0 1020.0 0.0
23/08:00am 11.1 6.1 10.9 99 0.1 SE 28 37 15 20 1019.8 1019.8 0.0
23/07:30am 11.1 6.8 10.9 99 0.1 SE 24 33 13 18 1019.8 1019.8 0.0
23/07:00am 10.9 6.6 10.7 99 0.1 SE 24 33 13 18 1019.8 1019.8 0.0
23/06:30am 10.9 5.4 10.7 99 0.1 SE 30 41 16 22 1019.6 1019.6 0.0
23/06:00am 11.0 6.7 10.8 99 0.1 SE 24 33 13 18 1019.6 1019.6 0.0
23/05:30am 11.0 6.7 10.8 99 0.1 SE 24 35 13 19 1019.6 1019.6 0.0
23/05:00am 11.0 7.1 10.8 99 0.1 SSE 22 32 12 17 1019.3 1019.4 0.0
23/04:30am 11.1 7.2 10.9 99 0.1 SE 22 30 12 16 1019.3 1019.4 0.0
23/04:06am 11.1 7.2 10.9 99 0.1 SE 22 32 12 17 1019.3 1019.4 0.0
23/04:00am 11.1 6.8 10.9 99 0.1 SSE 24 32 13 17 1019.6 1019.6 0.0
23/03:33am 11.1 7.6 10.9 99 0.1 SSE 20 28 11 15 1019.7 1019.7 0.0
23/03:30am 11.1 7.2 10.9 99 0.1 SSE 22 32 12 17 1019.8 1019.8 0.0
23/03:09am 11.0 6.7 10.8 99 0.1 SSE 24 33 13 18 1019.8 1019.8 0.0
23/03:00am 11.1 7.2 10.9 99 0.1 SSE 22 32 12 17 1019.8 1019.8 0.0
23/02:45am 11.2 7.0 11.0 99 0.1 SSE 24 32 13 17 1019.8 1019.8 0.0
23/02:39am 11.1 6.5 10.9 99 0.1 SSE 26 33 14 18 1019.8 1019.8 0.0
23/02:30am 11.2 7.4 11.0 99 0.1 SSE 22 32 12 17 1019.9 1019.9 0.0
23/02:12am 11.3 7.5 11.1 99 0.1 SSE 22 32 12 17 1019.8 1019.8 0.0
23/02:00am 11.3 6.7 11.1 99 0.1 SSE 26 35 14 19 1019.9 1019.9 0.0
23/01:30am 11.4 7.2 11.2 99 0.1 SSE 24 32 13 17 1020.1 1020.1 0.0
23/01:00am 11.5 7.7 11.3 99 0.1 SSE 22 30 12 16 1020.1 1020.1 0.0
23/12:30am 11.8 9.1 11.6 99 0.1 SSE 17 20 9 11 1020.2 1020.2 0.0
23/12:00am 11.8 8.5 11.6 99 0.1 SE 20 28 11 15 1020.3 1020.3 0.0
 
Date/Time
EDT
Temp
°C
App
Temp
°C
Dew
Point
Rel
Hum
%
Delta-T
°C
Wind Press
QNH
hPa
Press
MSL
hPa
Rain
since 9 am
mm
Dir
 
Spd
km/h
Gust
km/h
Spd
kts
Gust
kts
22/11:30pm 11.8 9.1 11.6 99 0.1 SSE 17 22 9 12 1020.3 1020.3 0.0
22/11:00pm 12.1 8.9 11.8 98 0.2 SSE 20 28 11 15 1020.3 1020.3 0.0
22/10:30pm 12.0 8.7 11.7 98 0.2 SSE 20 24 11 13 1020.5 1020.5 0.0
22/10:00pm 12.1 8.4 11.6 97 0.3 SE 22 28 12 15 1020.7 1020.7 0.0
22/09:30pm 12.3 8.3 11.7 96 0.3 SSE 24 32 13 17 1020.6 1020.6 0.0
22/09:00pm 12.7 8.6 11.6 93 0.6 SSE 24 33 13 18 1020.3 1020.3 0.0
22/08:30pm 13.5 9.9 11.7 89 1.0 SSE 22 33 12 18 1019.6 1019.6 0.0
22/08:06pm 13.5 9.6 12.1 91 0.8 S 24 32 13 17 1019.0 1019.1 0.0
22/08:00pm 13.7 10.1 11.9 89 1.0 S 22 30 12 16 1019.0 1019.1 0.0
22/07:30pm 16.5 13.6 13.0 80 2.0 SSE 20 26 11 14 1018.4 1018.4 0.0
22/07:00pm 18.0 14.7 12.7 71 3.0 SSE 22 28 12 15 1018.1 1018.1 0.0
22/06:30pm 19.1 16.4 13.5 70 3.2 SE 20 26 11 14 1017.9 1017.9 0.0
22/06:00pm 19.9 18.4 13.1 65 3.9 SSW 13 19 7 10 1017.9 1017.9 0.0
22/05:30pm 21.6 17.8 14.7 65 4.1 S 28 37 15 20 1016.7 1016.7 0.0
22/05:00pm 25.4 21.0 14.2 50 6.7 SSW 30 41 16 22 1016.0 1016.0 0.0
22/04:30pm 26.9 22.2 15.9 51 6.8 S 35 44 19 24 1015.7 1015.7 0.0
22/04:00pm 29.9 25.8 16.0 43 8.7 S 32 41 17 22 1015.5 1015.5 0.0
22/03:30pm 31.6 28.1 13.4 33 11.0 SSW 24 32 13 17 1015.6 1015.6 0.0
22/03:00pm 32.2 28.9 10.8 27 12.5 NW 19 24 10 13 1015.9 1015.9 0.0
22/02:30pm 32.0 27.4 11.2 28 12.2 WNW 26 33 14 18 1016.0 1016.0 0.0
22/02:00pm 32.3 28.9 12.5 30 11.9 NW 22 32 12 17 1016.3 1016.3 0.0
22/01:30pm 31.8 27.7 11.6 29 11.9 NNW 24 30 13 16 1016.6 1016.6 0.0
22/01:00pm 31.3 26.3 9.5 26 12.4 N 26 41 14 22 1016.5 1016.5 0.0
22/12:30pm 29.9 26.3 11.9 33 10.6 N 22 28 12 15 1016.9 1016.9 0.0
22/12:00pm 26.8 22.9 10.9 37 9.1 N 22 30 12 16 1017.4 1017.4 0.0
22/11:30am 25.9 22.5 11.3 40 8.4 N 20 28 11 15 1017.8 1017.8 0.0
22/11:00am 26.0 22.3 11.4 40 8.4 N 22 30 12 16 1017.9 1017.9 0.0
22/10:30am 26.9 22.8 11.4 38 8.9 N 24 33 13 18 1017.9 1017.9 0.0
22/10:00am 26.3 20.8 10.5 37 8.9 N 30 37 16 20 1018.1 1018.1 0.0
22/09:30am 25.0 19.4 10.1 39 8.3 N 30 37 16 20 1018.1 1018.1 0.0
22/09:00am 24.7 19.4 9.8 39 8.3 N 28 39 15 21 1018.0 1018.0 0.0
22/08:30am 23.4 18.8 9.8 42 7.5 N 24 33 13 18 1018.0 1018.0 0.0
22/08:00am 20.8 16.5 9.4 48 6.1 N 22 28 12 15 1017.9 1017.9 0.0
22/07:30am 21.3 15.4 9.2 46 6.5 N 30 41 16 22 1017.8 1017.8 0.0
22/07:00am 20.9 16.3 9.8 49 6.0 N 24 32 13 17 1018.2 1018.2 0.0
22/06:30am 19.7 15.2 9.9 53 5.3 N 24 30 13 16 1018.1 1018.1 0.0
22/06:00am 16.9 13.7 9.8 63 3.8 NNW 17 20 9 11 1018.0 1018.0 0.0
22/05:30am 15.3 12.7 9.4 68 3.1 N 13 15 7 8 1017.8 1017.8 0.0
22/05:00am 16.1 13.8 9.1 63 3.6 N 11 13 6 7 1017.8 1017.8 0.0
22/04:30am 17.8 14.0 9.2 57 4.5 N 19 24 10 13 1017.8 1017.8 0.0
22/04:00am 17.6 13.8 9.2 58 4.4 N 19 22 10 12 1018.0 1018.0 0.0
22/03:30am 16.1 13.0 8.8 62 3.8 N 15 17 8 9 1018.3 1018.3 0.0
22/03:00am 14.6 11.9 9.0 69 2.9 N 13 17 7 9 1018.4 1018.4 0.0
22/02:30am 15.4 12.9 8.4 63 3.6 N 11 13 6 7 1018.8 1018.8 0.0
22/02:00am 15.9 13.4 8.4 61 3.8 NNE 11 13 6 7 1019.1 1019.2 0.0
22/01:30am 16.0 13.5 8.2 60 4.0 NNE 11 15 6 8 1019.7 1019.7 0.0
22/01:00am 15.2 13.6 8.7 65 3.3 NNE 7 9 4 5 1020.0 1020.0 0.0
22/12:30am 16.7 14.2 8.4 58 4.3 NNE 11 13 6 7 1020.2 1020.2 0.0
22/12:00am 16.9 13.4 8.6 58 4.3 NE 17 19 9 10 1020.4 1020.4 0.0
 
Date/Time
EDT
Temp
°C
App
Temp
°C
Dew
Point
Rel
Hum
%
Delta-T
°C
Wind Press
QNH
hPa
Press
MSL
hPa
Rain
since 9 am
mm
Dir
 
Spd
km/h
Gust
km/h
Spd
kts
Gust
kts
21/11:30pm 16.4 13.6 8.4 59 4.1 NE 13 15 7 8 1020.8 1020.8 0.0
21/11:00pm 16.9 14.2 9.1 60 4.1 NE 13 15 7 8 1021.1 1021.1 0.0
21/10:30pm 17.0 14.2 9.9 63 3.8 ENE 15 17 8 9 1021.3 1021.3 0.0
21/10:00pm 17.8 15.1 10.4 62 4.0 ENE 15 17 8 9 1021.5 1021.5 0.0
21/09:30pm 19.0 16.0 10.8 59 4.5 E 17 19 9 10 1021.3 1021.3 0.0
21/09:00pm 19.0 16.5 11.1 60 4.3 ENE 15 17 8 9 1021.3 1021.3 0.0
21/08:30pm 19.9 17.2 11.7 59 4.6 E 17 17 9 9 1021.1 1021.1 0.0
21/08:00pm 20.7 18.4 11.9 57 4.9 E 15 17 8 9 1021.2 1021.2 0.0
21/07:30pm 23.8 21.9 11.8 47 6.9 E 13 15 7 8 1021.2 1021.2 0.0
21/07:00pm 26.4 25.2 11.7 40 8.5 E 9 13 5 7 1021.2 1021.2 0.0
21/06:30pm 27.4 26.2 9.7 33 9.9 NNE 6 9 3 5 1021.2 1021.2 0.0
21/06:00pm 28.9 27.3 8.6 28 11.2 WNW 7 9 4 5 1021.2 1021.2 0.0
21/05:30pm 28.9 26.7 8.0 27 11.5 NW 9 15 5 8 1021.3 1021.3 0.0
21/05:00pm 29.1 27.8 9.8 30 10.9 NW 7 13 4 7 1021.4 1021.4 0.0
21/04:30pm 28.9 27.5 9.6 30 10.9 N 7 13 4 7 1021.7 1021.7 0.0
21/04:00pm 28.4 26.5 10.6 33 10.2 NW 11 17 6 9 1022.2 1022.2 0.0
21/03:41pm 28.1 26.3 10.8 34 9.9 NW 11 17 6 9 1022.3 1022.3 0.0
21/03:30pm 27.4 25.4 10.2 34 9.7 NW 11 15 6 8 1022.4 1022.5 0.0
21/03:00pm 26.7 24.3 10.0 35 9.4 NNW 13 19 7 10 1022.8 1022.9 0.0
21/02:30pm 26.6 24.4 10.7 37 9.0 WNW 13 20 7 11 1023.3 1023.4 0.0
21/02:00pm 26.1 24.0 9.9 36 9.0 WNW 11 17 6 9 1023.5 1023.6 0.0
21/01:30pm 26.0 23.6 11.4 40 8.4 NNW 15 20 8 11 1024.0 1024.0 0.0
21/01:00pm 25.3 23.2 9.6 37 8.7 NNW 11 19 6 10 1024.3 1024.3 0.0
21/12:30pm 24.3 22.2 9.8 40 8.0 NNW 11 19 6 10 1024.5 1024.5 0.0
21/12:00pm 22.9 20.5 8.6 40 7.7 N 11 17 6 9 1024.7 1024.7 0.0
21/11:30am 21.6 19.2 8.8 44 6.9 N 11 15 6 8 1024.8 1024.8 0.0
21/11:00am 20.3 18.5 8.0 45 6.4 N 7 13 4 7 1025.0 1025.0 0.0
21/10:30am 18.5 15.9 7.9 50 5.5 NNE 11 15 6 8 1025.0 1025.0 0.0
21/10:00am 16.8 14.5 7.4 54 4.7 NE 9 13 5 7 1025.0 1025.0 0.0
21/09:30am 15.3 13.4 9.0 66 3.3 NE 9 13 5 7 1025.0 1025.0 0.0
21/09:00am 12.4 10.4 8.7 78 1.9 NNE 9 11 5 6 1025.0 1025.0 0.0
21/08:30am 11.1 10.0 10.6 97 0.3 E 7 9 4 5 1024.8 1024.8 0.0
21/08:00am 8.4 6.3 8.3 99 0.0 E 9 13 5 7 1024.7 1024.7 0.0
21/07:30am 5.9 2.9 5.8 99 0.0 E 11 15 6 8 1024.6 1024.6 0.0
21/07:00am 4.6 0.2 4.5 99 0.0 ESE 17 19 9 10 1024.2 1024.2 0.0
21/06:30am 4.5 0.4 4.4 99 0.0 ESE 15 17 8 9 1023.8 1023.9 0.0
21/06:00am 5.3 0.6 5.2 99 0.0 ESE 19 20 10 11 1023.7 1023.8 0.0
21/05:53am 5.5 0.9 5.4 99 0.0 ESE 19 20 10 11 1023.7 1023.8 0.0
21/05:30am 5.8 1.2 5.7 99 0.0 ESE 19 22 10 12 1023.8 1023.9 0.0
21/05:00am 6.2 2.1 6.1 99 0.0 ESE 17 20 9 11 1024.1 1024.1 0.0

Other Formats:

Comma delimited format used in spreadsheet applications
http://www.bom.gov.au/fwo/IDV60801/IDV60801.94829.axf

JavaScript Object Notation format (JSON) in row-major order
http://www.bom.gov.au/fwo/IDV60801/IDV60801.94829.json